createdAt,value
2019-05-21T00:00:37.483Z,14.30
2019-05-21T00:03:06.448Z,14.33
2019-05-21T00:05:35.363Z,14.43
2019-05-21T00:08:04.304Z,14.41
2019-05-21T00:10:33.232Z,14.43
2019-05-21T00:13:02.142Z,14.40
2019-05-21T00:15:31.051Z,14.58
2019-05-21T00:17:59.969Z,14.46
2019-05-21T00:20:28.852Z,14.49
2019-05-21T00:22:57.753Z,14.54
2019-05-21T00:25:26.639Z,14.54
2019-05-21T00:27:55.561Z,14.43
2019-05-21T00:31:01.198Z,14.42
2019-05-21T00:34:06.530Z,14.39
2019-05-21T00:37:12.941Z,14.42
2019-05-21T00:40:18.547Z,14.37
2019-05-21T00:42:47.521Z,14.34
2019-05-21T00:45:16.384Z,14.35
2019-05-21T00:47:45.290Z,14.35
2019-05-21T00:50:14.219Z,14.35
2019-05-21T00:52:43.112Z,14.36
2019-05-21T00:55:12.044Z,14.36
2019-05-21T00:57:40.976Z,14.37
2019-05-21T01:00:10.247Z,14.36
2019-05-21T01:02:38.966Z,14.37
2019-05-21T01:05:07.923Z,14.34
2019-05-21T01:07:36.840Z,14.31
2019-05-21T01:10:05.765Z,14.39
2019-05-21T01:12:34.782Z,14.36
2019-05-21T01:15:03.739Z,14.39
2019-05-21T01:17:32.645Z,14.39
2019-05-21T01:20:01.585Z,14.37
2019-05-21T01:22:30.491Z,14.33
2019-05-21T01:24:59.412Z,14.36
2019-05-21T01:27:28.331Z,14.35
2019-05-21T01:29:57.230Z,14.37
2019-05-21T01:32:26.173Z,14.67
2019-05-21T01:34:55.077Z,14.48
2019-05-21T01:37:23.979Z,14.48
2019-05-21T01:39:52.904Z,14.46
2019-05-21T01:42:21.812Z,14.53
2019-05-21T01:44:50.731Z,14.47
2019-05-21T01:47:19.647Z,14.47
2019-05-21T01:49:48.573Z,14.48
2019-05-21T01:52:17.500Z,14.46
2019-05-21T01:54:46.393Z,14.37
2019-05-21T01:57:15.282Z,14.35
2019-05-21T01:59:44.202Z,14.32
2019-05-21T02:02:13.109Z,14.31
2019-05-21T02:04:42.029Z,14.26
2019-05-21T02:07:10.952Z,14.24
2019-05-21T02:09:57.706Z,14.24
2019-05-21T02:12:26.626Z,14.24
2019-05-21T02:14:55.552Z,14.43
2019-05-21T02:17:24.439Z,14.26
2019-05-21T02:19:53.354Z,14.27
2019-05-21T02:22:22.254Z,14.21
2019-05-21T02:24:51.212Z,14.23
2019-05-21T02:27:20.116Z,14.22
2019-05-21T02:29:49.016Z,14.22
2019-05-21T02:32:17.912Z,14.20
2019-05-21T02:34:46.826Z,14.19
2019-05-21T02:37:15.721Z,14.12
2019-05-21T02:39:44.631Z,14.17
2019-05-21T02:42:13.577Z,14.15
2019-05-21T02:44:42.535Z,14.12
2019-05-21T02:47:11.426Z,14.15
2019-05-21T02:49:40.489Z,14.17
2019-05-21T02:52:09.252Z,14.17
2019-05-21T02:54:41.550Z,14.19
2019-05-21T02:57:07.108Z,14.43
2019-05-21T02:59:36.025Z,14.20
2019-05-21T03:02:18.645Z,14.16
2019-05-21T03:04:47.538Z,14.16
2019-05-21T03:07:19.342Z,14.36
2019-05-21T03:09:48.725Z,14.24
2019-05-21T03:12:17.640Z,14.16
2019-05-21T03:14:46.585Z,14.11
2019-05-21T03:17:15.496Z,14.15
2019-05-21T03:19:44.408Z,14.08
2019-05-21T03:22:13.338Z,14.01
2019-05-21T03:24:42.244Z,14.03
2019-05-21T03:27:11.170Z,13.93
2019-05-21T03:29:40.066Z,13.98
2019-05-21T03:32:09.029Z,13.97
2019-05-21T03:34:37.958Z,13.96
2019-05-21T03:37:06.993Z,13.94
2019-05-21T03:39:35.897Z,13.91
2019-05-21T03:42:04.910Z,13.84
2019-05-21T03:44:33.797Z,13.80
2019-05-21T03:47:02.741Z,13.79
2019-05-21T03:49:31.915Z,14.08
2019-05-21T03:52:00.821Z,13.93
2019-05-21T03:54:29.746Z,13.88
2019-05-21T03:56:58.648Z,13.83
2019-05-21T03:59:27.548Z,13.84
2019-05-21T04:01:56.451Z,13.85
2019-05-21T04:04:25.365Z,13.83
2019-05-21T04:06:54.323Z,13.83
2019-05-21T04:09:23.277Z,13.80
2019-05-21T04:11:53.304Z,13.80
2019-05-21T04:14:31.824Z,13.81
2019-05-21T04:17:05.552Z,13.84
2019-05-21T04:19:37.307Z,13.81
2019-05-21T04:22:07.177Z,13.80
2019-05-21T04:24:36.064Z,14.00
2019-05-21T04:27:05.077Z,13.88
2019-05-21T04:29:34.039Z,13.82
2019-05-21T04:32:03.002Z,13.79
2019-05-21T04:34:31.911Z,13.77
2019-05-21T04:37:10.726Z,13.82
2019-05-21T04:39:29.758Z,13.81
2019-05-21T04:41:58.652Z,13.67
2019-05-21T04:44:27.563Z,13.67
2019-05-21T04:46:56.453Z,13.70
2019-05-21T04:49:25.375Z,13.76
2019-05-21T04:51:54.276Z,13.73
2019-05-21T04:54:23.173Z,13.72
2019-05-21T04:56:52.107Z,13.65
2019-05-21T04:59:21.009Z,13.64
2019-05-21T05:01:49.926Z,13.66
2019-05-21T05:04:21.714Z,13.68
2019-05-21T05:06:47.781Z,13.68
2019-05-21T05:09:16.675Z,13.98
2019-05-21T05:11:45.595Z,13.81
2019-05-21T05:14:14.538Z,13.81
2019-05-21T05:16:43.473Z,13.77
2019-05-21T05:19:12.400Z,13.72
2019-05-21T05:21:41.284Z,13.75
2019-05-21T05:24:10.215Z,13.72
2019-05-21T05:26:39.124Z,13.63
2019-05-21T05:29:08.234Z,13.63
2019-05-21T05:31:37.173Z,13.73
2019-05-21T05:34:06.181Z,13.69
2019-05-21T05:36:35.081Z,13.71
2019-05-21T05:39:05.235Z,13.77
2019-05-21T05:41:34.135Z,13.93
2019-05-21T05:44:03.016Z,13.79
2019-05-21T05:46:31.938Z,14.03
2019-05-21T05:49:07.838Z,13.97
2019-05-21T05:51:36.735Z,13.94
2019-05-21T05:54:07.686Z,13.99
2019-05-21T05:56:34.650Z,13.99
2019-05-21T05:59:03.623Z,13.96
2019-05-21T06:01:32.531Z,14.01
2019-05-21T06:04:01.442Z,14.02
2019-05-21T06:06:30.341Z,13.99
2019-05-21T06:08:59.269Z,13.96
2019-05-21T06:11:28.163Z,13.98
2019-05-21T06:13:57.137Z,13.97
2019-05-21T06:16:25.998Z,13.98
2019-05-21T06:18:54.945Z,14.01
2019-05-21T06:21:23.863Z,14.04
2019-05-21T06:23:52.757Z,14.02
2019-05-21T06:26:21.668Z,14.04
2019-05-21T06:28:50.596Z,14.03
2019-05-21T06:31:19.518Z,13.96
2019-05-21T06:33:48.441Z,14.00
2019-05-21T06:36:17.361Z,13.96
2019-05-21T06:38:46.244Z,13.97
2019-05-21T06:41:15.286Z,13.97
2019-05-21T06:43:44.096Z,14.04
2019-05-21T06:46:13.020Z,14.03
2019-05-21T06:48:41.929Z,14.07
2019-05-21T06:51:10.840Z,14.01
2019-05-21T06:53:39.731Z,13.99
2019-05-21T06:56:08.804Z,14.06
2019-05-21T06:58:37.724Z,14.04
2019-05-21T07:01:06.756Z,13.99
2019-05-21T07:03:35.635Z,13.96
2019-05-21T07:06:04.577Z,13.95
2019-05-21T07:08:35.222Z,13.99
2019-05-21T07:11:02.725Z,14.03
2019-05-21T07:13:34.460Z,14.07
2019-05-21T07:16:05.283Z,14.09
2019-05-21T07:18:34.651Z,14.12
2019-05-21T07:21:03.779Z,14.21
2019-05-21T07:23:32.941Z,14.20
2019-05-21T07:26:02.274Z,14.21
2019-05-21T07:28:35.671Z,14.16
2019-05-21T07:31:03.444Z,14.20
2019-05-21T07:33:35.350Z,14.13
2019-05-21T07:36:10.252Z,14.15
2019-05-21T07:38:52.831Z,14.23
2019-05-21T07:41:11.320Z,14.22
2019-05-21T07:43:42.368Z,14.16
2019-05-21T07:46:11.993Z,14.21
2019-05-21T07:48:41.297Z,14.18
2019-05-21T07:51:13.984Z,14.23
2019-05-21T07:53:43.951Z,14.26
2019-05-21T07:56:13.321Z,14.24
2019-05-21T07:58:42.443Z,14.25
2019-05-21T08:01:11.566Z,14.19
2019-05-21T08:03:40.785Z,14.19
2019-05-21T08:06:10.057Z,14.22
2019-05-21T08:09:10.912Z,14.23
2019-05-21T08:11:22.618Z,14.26
2019-05-21T08:13:51.706Z,14.22
2019-05-21T08:16:20.918Z,14.25
2019-05-21T08:18:50.059Z,14.26
2019-05-21T08:21:19.236Z,14.33
2019-05-21T08:23:48.587Z,14.30
2019-05-21T08:26:19.315Z,14.36
2019-05-21T08:28:48.391Z,14.34
2019-05-21T08:31:19.533Z,14.58
2019-05-21T08:33:47.005Z,14.47
2019-05-21T08:36:16.144Z,14.43
2019-05-21T08:38:45.237Z,14.43
2019-05-21T08:41:16.937Z,14.46
2019-05-21T08:43:46.715Z,14.71
2019-05-21T08:46:16.197Z,14.58
2019-05-21T08:48:47.794Z,14.54
2019-05-21T08:51:21.698Z,14.52
2019-05-21T08:53:50.787Z,14.50
2019-05-21T08:56:20.005Z,14.46
2019-05-21T08:58:51.150Z,14.48
2019-05-21T09:01:20.245Z,14.51
2019-05-21T09:03:52.543Z,14.51
2019-05-21T09:06:21.811Z,14.56
2019-05-21T09:08:50.893Z,14.53
2019-05-21T09:11:19.980Z,14.49
2019-05-21T09:13:48.888Z,14.50
2019-05-21T09:16:17.887Z,14.46
2019-05-21T09:18:46.723Z,14.37
2019-05-21T09:21:15.718Z,14.43
2019-05-21T09:23:44.638Z,14.42
2019-05-21T09:26:13.559Z,14.49
2019-05-21T09:28:42.458Z,14.43
2019-05-21T09:31:11.374Z,14.49
2019-05-21T09:33:40.281Z,14.51
2019-05-21T09:36:09.292Z,14.47
2019-05-21T09:38:38.199Z,14.48
2019-05-21T09:41:07.329Z,14.47
2019-05-21T09:43:36.206Z,14.46
2019-05-21T09:46:05.209Z,14.55
2019-05-21T09:48:34.124Z,14.53
2019-05-21T09:51:03.074Z,14.56
2019-05-21T09:53:32.083Z,14.58
2019-05-21T09:56:20.202Z,14.64
2019-05-21T09:58:49.108Z,14.68
2019-05-21T10:01:25.316Z,14.76
2019-05-21T10:03:56.573Z,14.79
2019-05-21T10:06:25.448Z,14.86
2019-05-21T10:08:54.383Z,15.03
2019-05-21T10:11:23.299Z,14.95
2019-05-21T10:13:52.224Z,15.03
2019-05-21T10:16:21.142Z,15.08
2019-05-21T10:18:50.058Z,15.13
2019-05-21T10:21:19.007Z,15.20
2019-05-21T10:23:47.949Z,15.22
2019-05-21T10:26:16.878Z,15.10
2019-05-21T10:28:45.806Z,15.10
2019-05-21T10:31:14.729Z,15.13
2019-05-21T10:33:43.605Z,15.41
2019-05-21T10:36:12.543Z,15.28
2019-05-21T10:38:41.461Z,15.25
2019-05-21T10:41:10.391Z,15.31
2019-05-21T10:43:39.301Z,15.25
2019-05-21T10:46:08.471Z,15.25
2019-05-21T10:48:37.391Z,15.23
2019-05-21T10:51:06.448Z,15.13
2019-05-21T10:53:35.492Z,15.15
2019-05-21T10:56:04.469Z,15.14
2019-05-21T10:58:33.379Z,15.10
2019-05-21T11:01:11.610Z,15.17
2019-05-21T11:04:08.769Z,15.08
2019-05-21T11:06:37.706Z,15.38
2019-05-21T11:09:08.598Z,15.55
2019-05-21T11:11:37.524Z,15.67
2019-05-21T11:14:06.721Z,15.76
2019-05-21T11:16:35.595Z,15.47
2019-05-21T11:19:04.545Z,15.42
2019-05-21T11:21:33.467Z,15.39
2019-05-21T11:24:02.493Z,15.35
2019-05-21T11:26:31.267Z,15.24
2019-05-21T11:29:00.217Z,15.27
2019-05-21T11:31:29.129Z,15.21
2019-05-21T11:33:58.087Z,15.12
2019-05-21T11:36:26.984Z,15.13
2019-05-21T11:38:56.142Z,15.10
2019-05-21T11:41:25.036Z,15.14
2019-05-21T11:43:53.942Z,15.23
2019-05-21T11:46:22.867Z,15.16
2019-05-21T11:48:51.813Z,15.25
2019-05-21T11:51:20.754Z,15.23
2019-05-21T11:53:49.687Z,15.30
2019-05-21T11:56:19.019Z,15.37
2019-05-21T11:58:47.832Z,15.44
2019-05-21T12:01:16.843Z,15.55
2019-05-21T12:03:45.747Z,15.54
2019-05-21T12:06:14.665Z,15.58
2019-05-21T12:08:56.048Z,15.61
2019-05-21T12:11:12.587Z,15.61
2019-05-21T12:13:41.427Z,15.61
2019-05-21T12:16:10.491Z,15.63
2019-05-21T12:18:39.386Z,15.83
2019-05-21T12:21:08.419Z,15.79
2019-05-21T12:23:37.332Z,16.08
2019-05-21T12:26:06.440Z,15.89
2019-05-21T12:28:35.304Z,15.92
2019-05-21T12:31:04.284Z,15.91
2019-05-21T12:33:35.219Z,15.85
2019-05-21T12:36:02.147Z,15.91
2019-05-21T12:38:31.083Z,15.90
2019-05-21T12:40:59.962Z,16.02
2019-05-21T12:43:28.902Z,15.96
2019-05-21T12:45:57.815Z,15.77
2019-05-21T12:48:26.724Z,15.77
2019-05-21T12:50:55.626Z,15.78
2019-05-21T12:53:24.536Z,15.62
2019-05-21T12:55:53.477Z,15.68
2019-05-21T12:58:22.395Z,15.65
2019-05-21T13:00:51.298Z,15.51
2019-05-21T13:03:20.240Z,15.52
2019-05-21T13:05:49.156Z,15.51
2019-05-21T13:08:18.044Z,15.52
2019-05-21T13:10:47.250Z,15.51
2019-05-21T13:13:15.960Z,15.44
2019-05-21T13:15:44.832Z,15.54
2019-05-21T13:18:13.750Z,15.47
2019-05-21T13:20:42.671Z,15.51
2019-05-21T13:23:11.748Z,15.61
2019-05-21T13:25:40.550Z,15.60
2019-05-21T13:28:09.598Z,15.57
2019-05-21T13:30:38.518Z,15.62
2019-05-21T13:33:07.595Z,15.65
2019-05-21T13:35:36.507Z,15.64
2019-05-21T13:38:05.492Z,15.56
2019-05-21T13:40:34.398Z,15.50
2019-05-21T13:43:03.427Z,15.46
2019-05-21T13:45:32.335Z,15.49
2019-05-21T13:48:01.263Z,15.77
2019-05-21T13:50:30.168Z,15.59
2019-05-21T13:52:59.080Z,15.61
2019-05-21T13:55:27.993Z,15.61
2019-05-21T13:57:56.973Z,15.58
2019-05-21T14:00:28.292Z,15.65
2019-05-21T14:02:57.411Z,15.71
2019-05-21T14:05:26.374Z,15.81
2019-05-21T14:07:55.951Z,15.87
2019-05-21T14:10:25.330Z,16.03
2019-05-21T14:12:55.291Z,16.00
2019-05-21T14:15:24.122Z,16.00
2019-05-21T14:17:53.096Z,16.08
2019-05-21T14:20:22.015Z,16.13
2019-05-21T14:22:50.950Z,15.98
2019-05-21T14:25:19.826Z,16.07
2019-05-21T14:27:49.346Z,15.88
2019-05-21T14:30:18.850Z,15.69
2019-05-21T14:32:48.317Z,15.75
2019-05-21T14:35:17.201Z,15.66
2019-05-21T14:37:46.106Z,15.64
2019-05-21T14:40:30.503Z,15.64
2019-05-21T14:42:58.469Z,15.57
2019-05-21T14:45:12.879Z,15.65
2019-05-21T14:47:41.765Z,15.55
2019-05-21T14:50:10.713Z,15.55
2019-05-21T14:52:39.641Z,15.49
2019-05-21T14:55:08.745Z,15.75
2019-05-21T14:57:37.678Z,15.46
2019-05-21T15:00:10.489Z,15.45
2019-05-21T15:02:39.760Z,15.53
2019-05-21T15:05:08.435Z,15.31
2019-05-21T15:07:37.356Z,15.34
2019-05-21T15:10:06.509Z,15.35
2019-05-21T15:12:35.431Z,15.29
2019-05-21T15:15:04.890Z,15.16
2019-05-21T15:17:33.798Z,15.23
2019-05-21T15:20:04.534Z,15.29
2019-05-21T15:22:33.448Z,15.27
2019-05-21T15:25:02.369Z,15.18
2019-05-21T15:27:31.296Z,15.19
2019-05-21T15:30:00.251Z,15.14
2019-05-21T15:32:30.765Z,15.23
2019-05-21T15:34:58.177Z,15.21
2019-05-21T15:37:27.090Z,15.22
2019-05-21T15:39:56.033Z,15.21
2019-05-21T15:42:25.233Z,15.25
2019-05-21T15:44:54.163Z,15.20
2019-05-21T15:47:23.070Z,15.22
2019-05-21T15:49:51.974Z,15.26
2019-05-21T15:52:20.907Z,15.18
2019-05-21T15:54:49.816Z,15.21
2019-05-21T15:57:18.759Z,15.14
2019-05-21T15:59:47.630Z,15.19
2019-05-21T16:02:16.552Z,15.18
2019-05-21T16:04:45.435Z,15.08
2019-05-21T16:07:14.355Z,15.05
2019-05-21T16:09:43.257Z,14.96
2019-05-21T16:12:12.220Z,14.93
2019-05-21T16:14:41.157Z,14.94
2019-05-21T16:17:10.223Z,14.97
2019-05-21T16:19:39.221Z,14.99
2019-05-21T16:22:08.295Z,15.25
2019-05-21T16:24:37.198Z,14.99
2019-05-21T16:27:06.276Z,14.98
2019-05-21T16:29:35.164Z,15.21
2019-05-21T16:32:04.170Z,14.99
2019-05-21T16:34:33.095Z,15.00
2019-05-21T16:37:02.020Z,15.00
2019-05-21T16:39:30.950Z,14.95
2019-05-21T16:41:59.861Z,14.95
2019-05-21T16:44:28.773Z,14.95
2019-05-21T16:46:57.682Z,14.94
2019-05-21T16:49:26.613Z,14.97
2019-05-21T16:51:55.584Z,14.86
2019-05-21T16:54:24.494Z,15.16
2019-05-21T16:56:53.403Z,14.97
2019-05-21T16:59:22.331Z,14.93
2019-05-21T17:01:51.310Z,15.19
2019-05-21T17:04:20.232Z,15.30
2019-05-21T17:06:49.122Z,15.05
2019-05-21T17:09:18.049Z,15.05
2019-05-21T17:11:58.941Z,15.03
2019-05-21T17:14:15.844Z,15.29
2019-05-21T17:16:44.796Z,14.98
2019-05-21T17:19:13.720Z,14.86
2019-05-21T17:21:42.630Z,14.83
2019-05-21T17:24:11.566Z,14.76
2019-05-21T17:26:42.863Z,14.75
2019-05-21T17:29:09.510Z,14.74
2019-05-21T17:31:38.444Z,14.80
2019-05-21T17:34:07.451Z,14.65
2019-05-21T17:36:36.363Z,14.62
2019-05-21T17:39:06.054Z,14.62
2019-05-21T17:41:34.968Z,14.89
2019-05-21T17:44:03.922Z,14.65
2019-05-21T17:46:32.850Z,14.64
2019-05-21T17:49:01.745Z,14.59
2019-05-21T17:51:30.679Z,14.54
2019-05-21T17:53:59.570Z,14.88
2019-05-21T17:56:28.491Z,14.66
2019-05-21T17:58:57.431Z,14.62
2019-05-21T18:01:26.337Z,14.64
2019-05-21T18:03:55.241Z,14.65
2019-05-21T18:06:24.903Z,14.56
2019-05-21T18:08:53.819Z,14.52
2019-05-21T18:11:22.741Z,14.52
2019-05-21T18:13:51.703Z,14.44
2019-05-21T18:16:20.709Z,14.35
2019-05-21T18:18:49.936Z,14.33
2019-05-21T18:21:18.854Z,14.33
2019-05-21T18:23:47.755Z,14.27
2019-05-21T18:26:16.666Z,14.22
2019-05-21T18:28:45.548Z,14.23
2019-05-21T18:31:14.509Z,14.19
2019-05-21T18:33:43.417Z,14.16
2019-05-21T18:36:12.594Z,14.11
2019-05-21T18:38:41.803Z,14.32
2019-05-21T18:41:10.738Z,14.16
2019-05-21T18:43:40.311Z,14.08
2019-05-21T18:46:09.194Z,13.96
2019-05-21T18:48:38.067Z,13.94
2019-05-21T18:51:07.092Z,13.92
2019-05-21T18:53:36.027Z,13.93
2019-05-21T18:56:05.077Z,13.92
2019-05-21T18:58:33.946Z,13.92
2019-05-21T19:01:02.881Z,13.95
2019-05-21T19:03:31.766Z,13.91
2019-05-21T19:06:00.719Z,13.93
2019-05-21T19:08:29.667Z,13.85
2019-05-21T19:10:58.582Z,13.78
2019-05-21T19:13:27.501Z,13.74
2019-05-21T19:15:56.431Z,13.74
2019-05-21T19:18:25.413Z,13.73
2019-05-21T19:20:55.022Z,13.71
2019-05-21T19:23:23.965Z,13.74
2019-05-21T19:25:52.890Z,13.75
2019-05-21T19:28:21.816Z,13.72
2019-05-21T19:30:50.760Z,13.65
2019-05-21T19:33:19.623Z,13.63
2019-05-21T19:35:48.563Z,13.61
2019-05-21T19:38:17.555Z,13.62
2019-05-21T19:40:46.474Z,13.94
2019-05-21T19:43:15.401Z,14.08
2019-05-21T19:45:44.312Z,13.86
2019-05-21T19:48:13.241Z,13.77
2019-05-21T19:50:42.147Z,13.80
2019-05-21T19:53:11.096Z,13.76
2019-05-21T19:55:40.156Z,13.72
2019-05-21T19:58:09.145Z,13.65
2019-05-21T20:00:41.201Z,13.70
2019-05-21T20:03:10.382Z,13.63
2019-05-21T20:05:40.234Z,13.58
2019-05-21T20:08:09.233Z,13.64
2019-05-21T20:10:38.495Z,13.68
2019-05-21T20:13:07.568Z,13.59
2019-05-21T20:15:36.470Z,13.54
2019-05-21T20:18:07.697Z,13.58
2019-05-21T20:20:34.390Z,13.59
2019-05-21T20:23:03.482Z,13.57
2019-05-21T20:25:32.660Z,13.58
2019-05-21T20:28:01.638Z,13.57
2019-05-21T20:30:30.491Z,13.55
2019-05-21T20:32:59.387Z,13.59
2019-05-21T20:35:28.288Z,13.60
2019-05-21T20:37:57.325Z,13.63
2019-05-21T20:40:26.236Z,13.65
2019-05-21T20:42:55.684Z,13.61
2019-05-21T20:45:24.629Z,13.60
2019-05-21T20:47:53.570Z,13.83
2019-05-21T20:50:22.879Z,13.66
2019-05-21T20:52:51.799Z,13.58
2019-05-21T20:55:20.691Z,13.58
2019-05-21T20:57:49.642Z,13.57
2019-05-21T21:00:20.480Z,13.60
2019-05-21T21:02:49.476Z,13.64
2019-05-21T21:05:18.384Z,13.62
2019-05-21T21:07:47.313Z,13.63
2019-05-21T21:10:16.251Z,13.62
2019-05-21T21:12:47.981Z,13.60
2019-05-21T21:15:16.857Z,13.55
2019-05-21T21:17:45.775Z,13.54
2019-05-21T21:20:14.857Z,13.56
2019-05-21T21:22:43.791Z,13.56
2019-05-21T21:25:12.737Z,13.59
2019-05-21T21:27:41.636Z,13.81
2019-05-21T21:30:10.593Z,13.64
2019-05-21T21:32:39.492Z,13.64
2019-05-21T21:35:09.468Z,13.64
2019-05-21T21:37:38.371Z,13.62
2019-05-21T21:40:07.705Z,13.60
2019-05-21T21:42:36.582Z,13.62
2019-05-21T21:45:05.650Z,13.58
2019-05-21T21:47:34.586Z,13.61
2019-05-21T21:50:03.657Z,13.83
2019-05-21T21:52:32.557Z,13.63
2019-05-21T21:55:01.472Z,13.57
2019-05-21T21:57:30.405Z,13.60
2019-05-21T21:59:59.303Z,13.54
2019-05-21T22:02:29.118Z,13.49
2019-05-21T22:04:58.052Z,13.49
2019-05-21T22:07:27.006Z,13.48
2019-05-21T22:09:56.078Z,13.50
2019-05-21T22:12:25.108Z,13.41
2019-05-21T22:14:55.386Z,13.39
2019-05-21T22:17:24.366Z,13.36
2019-05-21T22:19:53.290Z,13.35
2019-05-21T22:22:22.239Z,13.26
2019-05-21T22:24:51.123Z,13.54
2019-05-21T22:27:20.023Z,13.41
2019-05-21T22:29:48.967Z,13.34
2019-05-21T22:32:17.894Z,13.34
2019-05-21T22:34:46.830Z,13.36
2019-05-21T22:37:17.676Z,13.30
2019-05-21T22:39:46.595Z,13.32
2019-05-21T22:42:15.501Z,13.31
2019-05-21T22:44:44.442Z,13.34
2019-05-21T22:47:13.358Z,13.33
2019-05-21T22:49:42.253Z,13.37
2019-05-21T22:52:11.197Z,13.36
2019-05-21T22:54:40.122Z,13.32
2019-05-21T22:57:09.091Z,13.29
2019-05-21T22:59:37.966Z,13.30
2019-05-21T23:02:08.600Z,13.27
2019-05-21T23:04:37.523Z,13.20
2019-05-21T23:07:06.487Z,13.21
2019-05-21T23:09:35.376Z,13.37
2019-05-21T23:12:04.268Z,13.21
2019-05-21T23:14:33.209Z,13.12
2019-05-21T23:17:02.119Z,13.09
2019-05-21T23:19:31.047Z,13.10
2019-05-21T23:22:00.196Z,13.07
2019-05-21T23:24:29.120Z,13.12
2019-05-21T23:26:58.024Z,13.10
2019-05-21T23:29:26.954Z,13.09
2019-05-21T23:31:55.851Z,13.08
2019-05-21T23:34:24.737Z,13.37
2019-05-21T23:36:53.704Z,13.15
2019-05-21T23:39:28.126Z,13.09
2019-05-21T23:41:57.052Z,13.09
2019-05-21T23:44:25.947Z,13.12
2019-05-21T23:46:54.886Z,13.12
2019-05-21T23:49:23.813Z,13.09
2019-05-21T23:51:52.721Z,13.08
2019-05-21T23:54:21.637Z,13.06
2019-05-21T23:56:50.522Z,13.03
2019-05-21T23:59:19.981Z,13.04
